sensor_id;sensor_type;location;lat;lon;timestamp;pressure;altitude;pressure_sealevel;temperature;humidity
77161;BME280;66135;0.000;0.000;2023-07-20T00:00:22;101282.22;;;23.06;60.18
77161;BME280;66135;0.000;0.000;2023-07-20T00:02:50;101287.84;;;23.05;60.42
77161;BME280;66135;0.000;0.000;2023-07-20T00:05:15;101281.38;;;23.06;60.45
77161;BME280;66135;0.000;0.000;2023-07-20T00:07:43;101284.31;;;23.04;60.36
77161;BME280;66135;0.000;0.000;2023-07-20T00:10:09;101278.84;;;23.04;60.29
77161;BME280;66135;0.000;0.000;2023-07-20T00:12:35;101283.66;;;23.02;60.13
77161;BME280;66135;0.000;0.000;2023-07-20T00:15:00;101286.19;;;23.04;60.12
77161;BME280;66135;0.000;0.000;2023-07-20T00:17:26;101285.31;;;23.03;60.54
77161;BME280;66135;0.000;0.000;2023-07-20T00:19:51;101282.78;;;23.02;60.48
77161;BME280;66135;0.000;0.000;2023-07-20T00:22:16;101284.50;;;23.03;60.12
77161;BME280;66135;0.000;0.000;2023-07-20T00:24:42;101285.72;;;23.00;60.15
77161;BME280;66135;0.000;0.000;2023-07-20T00:27:07;101292.06;;;23.01;60.57
77161;BME280;66135;0.000;0.000;2023-07-20T00:29:33;101283.00;;;23.00;60.57
77161;BME280;66135;0.000;0.000;2023-07-20T00:31:58;101284.06;;;22.99;60.53
77161;BME280;66135;0.000;0.000;2023-07-20T00:34:24;101285.72;;;23.00;60.46
77161;BME280;66135;0.000;0.000;2023-07-20T00:36:50;101279.41;;;23.00;60.12
77161;BME280;66135;0.000;0.000;2023-07-20T00:39:15;101281.31;;;22.99;60.46
77161;BME280;66135;0.000;0.000;2023-07-20T00:41:41;101274.16;;;22.98;60.53
77161;BME280;66135;0.000;0.000;2023-07-20T00:44:06;101279.59;;;22.98;60.53
77161;BME280;66135;0.000;0.000;2023-07-20T00:46:32;101280.66;;;22.97;60.09
77161;BME280;66135;0.000;0.000;2023-07-20T00:48:57;101279.81;;;22.97;60.02
77161;BME280;66135;0.000;0.000;2023-07-20T00:51:25;101287.81;;;22.98;60.28
77161;BME280;66135;0.000;0.000;2023-07-20T00:53:51;101281.69;;;22.96;60.31
77161;BME280;66135;0.000;0.000;2023-07-20T00:56:17;101280.88;;;22.96;60.53
77161;BME280;66135;0.000;0.000;2023-07-20T00:58:43;101283.59;;;22.96;60.35
77161;BME280;66135;0.000;0.000;2023-07-20T01:01:09;101286.53;;;22.94;60.00
77161;BME280;66135;0.000;0.000;2023-07-20T01:03:34;101290.94;;;22.95;59.87
77161;BME280;66135;0.000;0.000;2023-07-20T01:08:57;101284.63;;;22.95;60.02
77161;BME280;66135;0.000;0.000;2023-07-20T01:12:16;101290.94;;;22.95;60.02
77161;BME280;66135;0.000;0.000;2023-07-20T01:14:15;101296.59;;;22.94;60.07
77161;BME280;66135;0.000;0.000;2023-07-20T01:16:42;101288.41;;;22.94;60.06
77161;BME280;66135;0.000;0.000;2023-07-20T01:19:07;101292.16;;;22.93;60.05
77161;BME280;66135;0.000;0.000;2023-07-20T01:21:50;101289.63;;;22.91;60.33
77161;BME280;66135;0.000;0.000;2023-07-20T01:30:08;101293.41;;;22.90;60.04
77161;BME280;66135;0.000;0.000;2023-07-20T01:32:40;101290.88;;;22.89;60.17
77161;BME280;66135;0.000;0.000;2023-07-20T01:35:08;101294.63;;;22.88;60.36
77161;BME280;66135;0.000;0.000;2023-07-20T01:37:35;101290.88;;;22.89;60.44
77161;BME280;66135;0.000;0.000;2023-07-20T01:40:02;101294.28;;;22.91;59.82
77161;BME280;66135;0.000;0.000;2023-07-20T01:42:28;101288.97;;;22.89;60.14
77161;BME280;66135;0.000;0.000;2023-07-20T01:44:54;101288.97;;;22.89;59.92
77161;BME280;66135;0.000;0.000;2023-07-20T01:47:20;101287.28;;;22.88;60.10
77161;BME280;66135;0.000;0.000;2023-07-20T01:49:45;101289.38;;;22.86;59.97
77161;BME280;66135;0.000;0.000;2023-07-20T01:52:11;101291.91;;;22.88;60.17
77161;BME280;66135;0.000;0.000;2023-07-20T01:54:36;101305.56;;;22.88;60.24
77161;BME280;66135;0.000;0.000;2023-07-20T01:57:02;101308.28;;;22.88;60.10
77161;BME280;66135;0.000;0.000;2023-07-20T01:59:28;101304.91;;;22.86;59.80
77161;BME280;66135;0.000;0.000;2023-07-20T02:01:53;101298.63;;;22.85;60.10
77161;BME280;66135;0.000;0.000;2023-07-20T02:04:19;101305.75;;;22.86;60.21
77161;BME280;66135;0.000;0.000;2023-07-20T02:06:44;101303.03;;;22.86;59.85
77161;BME280;66135;0.000;0.000;2023-07-20T02:09:10;101299.44;;;22.86;59.83
77161;BME280;66135;0.000;0.000;2023-07-20T02:11:35;101301.34;;;22.85;59.86
77161;BME280;66135;0.000;0.000;2023-07-20T02:14:00;101304.28;;;22.84;59.76
77161;BME280;66135;0.000;0.000;2023-07-20T02:16:26;101301.56;;;22.84;59.81
77161;BME280;66135;0.000;0.000;2023-07-20T02:18:52;101302.38;;;22.84;59.89
77161;BME280;66135;0.000;0.000;2023-07-20T02:21:18;101304.44;;;22.82;60.19
77161;BME280;66135;0.000;0.000;2023-07-20T02:23:43;101299.84;;;22.83;59.71
77161;BME280;66135;0.000;0.000;2023-07-20T02:26:08;101309.91;;;22.82;59.81
77161;BME280;66135;0.000;0.000;2023-07-20T02:28:34;101302.78;;;22.81;59.66
77161;BME280;66135;0.000;0.000;2023-07-20T02:30:59;101305.31;;;22.83;60.11
77161;BME280;66135;0.000;0.000;2023-07-20T02:33:25;101308.25;;;22.81;59.90
77161;BME280;66135;0.000;0.000;2023-07-20T02:35:51;101307.38;;;22.81;60.11
77161;BME280;66135;0.000;0.000;2023-07-20T02:38:17;101310.97;;;22.81;60.44
77161;BME280;66135;0.000;0.000;2023-07-20T02:40:42;101313.69;;;22.81;60.13
77161;BME280;66135;0.000;0.000;2023-07-20T02:43:07;101319.16;;;22.81;59.82
77161;BME280;66135;0.000;0.000;2023-07-20T02:45:35;101319.16;;;22.81;59.75
77161;BME280;66135;0.000;0.000;2023-07-20T02:48:00;101317.66;;;22.79;59.91
77161;BME280;66135;0.000;0.000;2023-07-20T02:50:26;101312.03;;;22.80;60.23
77161;BME280;66135;0.000;0.000;2023-07-20T02:52:51;101322.09;;;22.80;59.73
77161;BME280;66135;0.000;0.000;2023-07-20T02:55:16;101330.28;;;22.80;60.12
77161;BME280;66135;0.000;0.000;2023-07-20T02:57:42;101327.75;;;22.78;60.14
77161;BME280;66135;0.000;0.000;2023-07-20T03:00:08;101331.31;;;22.79;59.56
77161;BME280;66135;0.000;0.000;2023-07-20T03:02:33;101332.16;;;22.79;60.01
77161;BME280;66135;0.000;0.000;2023-07-20T03:04:59;101330.69;;;22.77;60.08
77161;BME280;66135;0.000;0.000;2023-07-20T03:07:27;101333.22;;;22.78;59.66
77161;BME280;66135;0.000;0.000;2023-07-20T03:09:53;101335.94;;;22.78;59.60
77161;BME280;66135;0.000;0.000;2023-07-20T03:12:20;101336.97;;;22.77;60.15
77161;BME280;66135;0.000;0.000;2023-07-20T03:14:45;101337.81;;;22.78;59.88
77161;BME280;66135;0.000;0.000;2023-07-20T03:17:10;101347.91;;;22.77;59.63
77161;BME280;66135;0.000;0.000;2023-07-20T03:19:36;101349.81;;;22.77;60.12
77161;BME280;66135;0.000;0.000;2023-07-20T03:22:01;101346.22;;;22.76;60.03
77161;BME280;66135;0.000;0.000;2023-07-20T03:24:26;101352.69;;;22.75;60.04
77161;BME280;66135;0.000;0.000;2023-07-20T03:26:52;101339.91;;;22.76;60.13
77161;BME280;66135;0.000;0.000;2023-07-20T03:29:18;101345.38;;;22.76;60.13
77161;BME280;66135;0.000;0.000;2023-07-20T03:31:43;101338.88;;;22.77;59.83
77161;BME280;66135;0.000;0.000;2023-07-20T03:34:09;101351.69;;;22.76;59.69
77161;BME280;66135;0.000;0.000;2023-07-20T03:36:34;101338.03;;;22.76;59.99
77161;BME280;66135;0.000;0.000;2023-07-20T03:39:00;101359.22;;;22.74;60.12
77161;BME280;66135;0.000;0.000;2023-07-20T03:41:25;101352.91;;;22.74;60.21
77161;BME280;66135;0.000;0.000;2023-07-20T03:43:50;101355.63;;;22.74;59.91
77161;BME280;66135;0.000;0.000;2023-07-20T03:46:16;101349.34;;;22.73;60.09
77161;BME280;66135;0.000;0.000;2023-07-20T03:48:41;101348.28;;;22.74;59.80
77161;BME280;66135;0.000;0.000;2023-07-20T03:51:06;101361.09;;;22.74;60.16
77161;BME280;66135;0.000;0.000;2023-07-20T03:53:32;101355.63;;;22.74;60.12
77161;BME280;66135;0.000;0.000;2023-07-20T03:55:57;101360.28;;;22.73;59.85
77161;BME280;66135;0.000;0.000;2023-07-20T03:58:23;101366.56;;;22.74;59.91
77161;BME280;66135;0.000;0.000;2023-07-20T04:00:50;101359.41;;;22.73;59.74
77161;BME280;66135;0.000;0.000;2023-07-20T04:03:16;101365.75;;;22.73;59.76
77161;BME280;66135;0.000;0.000;2023-07-20T04:05:42;101372.03;;;22.74;59.99
77161;BME280;66135;0.000;0.000;2023-07-20T04:08:08;101370.53;;;22.71;60.14
77161;BME280;66135;0.000;0.000;2023-07-20T04:10:34;101361.50;;;22.71;60.11
77161;BME280;66135;0.000;0.000;2023-07-20T04:13:00;101368.63;;;22.72;59.76
77161;BME280;66135;0.000;0.000;2023-07-20T04:15:26;101364.03;;;22.72;59.92
77161;BME280;66135;0.000;0.000;2023-07-20T04:17:51;101374.94;;;22.72;60.13
77161;BME280;66135;0.000;0.000;2023-07-20T04:20:16;101376.66;;;22.73;59.64
77161;BME280;66135;0.000;0.000;2023-07-20T04:22:43;101367.81;;;22.71;59.65
77161;BME280;66135;0.000;0.000;2023-07-20T04:25:08;101377.69;;;22.72;59.82
77161;BME280;66135;0.000;0.000;2023-07-20T04:27:35;101372.59;;;22.69;60.09
77161;BME280;66135;0.000;0.000;2023-07-20T04:30:01;101373.47;;;22.70;59.79
77161;BME280;66135;0.000;0.000;2023-07-20T04:32:27;101375.16;;;22.71;59.72
77161;BME280;66135;0.000;0.000;2023-07-20T04:34:52;101381.66;;;22.70;59.91
77161;BME280;66135;0.000;0.000;2023-07-20T04:37:18;101379.75;;;22.70;59.73
77161;BME280;66135;0.000;0.000;2023-07-20T04:39:43;101391.72;;;22.69;60.12
77161;BME280;66135;0.000;0.000;2023-07-20T04:42:08;101387.94;;;22.70;59.74
77161;BME280;66135;0.000;0.000;2023-07-20T04:44:34;101385.22;;;22.70;60.00
77161;BME280;66135;0.000;0.000;2023-07-20T04:46:59;101387.94;;;22.70;59.88
77161;BME280;66135;0.000;0.000;2023-07-20T04:49:24;101382.69;;;22.69;59.81
77161;BME280;66135;0.000;0.000;2023-07-20T04:51:51;101386.25;;;22.69;59.93
77161;BME280;66135;0.000;0.000;2023-07-20T04:54:16;101378.06;;;22.69;59.98
77161;BME280;66135;0.000;0.000;2023-07-20T04:56:42;101379.13;;;22.68;59.98
77161;BME280;66135;0.000;0.000;2023-07-20T04:59:07;101380.81;;;22.69;59.94
77161;BME280;66135;0.000;0.000;2023-07-20T05:01:33;101389.00;;;22.69;59.84
77161;BME280;66135;0.000;0.000;2023-07-20T05:03:59;101387.13;;;22.70;59.62
77161;BME280;66135;0.000;0.000;2023-07-20T05:06:24;101378.06;;;22.69;60.12
77161;BME280;66135;0.000;0.000;2023-07-20T05:08:49;101377.41;;;22.67;59.97
77161;BME280;66135;0.000;0.000;2023-07-20T05:11:15;101378.28;;;22.68;60.06
77161;BME280;66135;0.000;0.000;2023-07-20T05:13:41;101374.69;;;22.67;59.51
77161;BME280;66135;0.000;0.000;2023-07-20T05:16:06;101378.47;;;22.66;59.89
77161;BME280;66135;0.000;0.000;2023-07-20T05:18:31;101372.16;;;22.66;60.18
77161;BME280;66135;0.000;0.000;2023-07-20T05:20:57;101387.47;;;22.67;60.04
77161;BME280;66135;0.000;0.000;2023-07-20T05:23:22;101386.66;;;22.66;60.03
77161;BME280;66135;0.000;0.000;2023-07-20T05:25:55;101387.47;;;22.67;60.23
77161;BME280;66135;0.000;0.000;2023-07-20T05:28:21;101388.53;;;22.66;60.12
77161;BME280;66135;0.000;0.000;2023-07-20T05:30:46;101384.75;;;22.67;59.81
77161;BME280;66135;0.000;0.000;2023-07-20T05:33:12;101383.94;;;22.66;59.81
77161;BME280;66135;0.000;0.000;2023-07-20T05:35:37;101384.75;;;22.67;59.92
77161;BME280;66135;0.000;0.000;2023-07-20T05:38:03;101392.13;;;22.66;59.73
77161;BME280;66135;0.000;0.000;2023-07-20T05:40:30;101391.25;;;22.66;59.67
77161;BME280;66135;0.000;0.000;2023-07-20T05:42:56;101400.31;;;22.66;59.68
77161;BME280;66135;0.000;0.000;2023-07-20T05:45:22;101407.47;;;22.67;60.12
77161;BME280;66135;0.000;0.000;2023-07-20T05:47:47;101402.19;;;22.66;60.24
77161;BME280;66135;0.000;0.000;2023-07-20T05:50:13;101411.44;;;22.65;60.06
77161;BME280;66135;0.000;0.000;2023-07-20T05:52:39;101412.44;;;22.64;59.97
77161;BME280;66135;0.000;0.000;2023-07-20T05:55:06;101403.25;;;22.65;59.81
77161;BME280;66135;0.000;0.000;2023-07-20T05:57:31;101417.72;;;22.65;59.85
77161;BME280;66135;0.000;0.000;2023-07-20T05:59:57;101411.44;;;22.65;60.13
77161;BME280;66135;0.000;0.000;2023-07-20T06:02:22;101417.72;;;22.65;60.07
77161;BME280;66135;0.000;0.000;2023-07-20T06:04:47;101410.38;;;22.66;59.99
77161;BME280;66135;0.000;0.000;2023-07-20T06:07:13;101401.34;;;22.65;59.94
77161;BME280;66135;0.000;0.000;2023-07-20T06:09:39;101405.78;;;22.66;60.02
77161;BME280;66135;0.000;0.000;2023-07-20T06:12:05;101407.66;;;22.66;60.17
77161;BME280;66135;0.000;0.000;2023-07-20T06:14:30;101410.56;;;22.64;59.88
77161;BME280;66135;0.000;0.000;2023-07-20T06:16:56;101410.56;;;22.64;60.26
77161;BME280;66135;0.000;0.000;2023-07-20T06:19:21;101419.63;;;22.65;59.94
77161;BME280;66135;0.000;0.000;2023-07-20T06:21:48;101419.78;;;22.63;60.29
77161;BME280;66135;0.000;0.000;2023-07-20T06:24:15;101423.38;;;22.64;60.17
77161;BME280;66135;0.000;0.000;2023-07-20T06:26:40;101425.25;;;22.63;60.29
77161;BME280;66135;0.000;0.000;2023-07-20T06:29:06;101423.75;;;22.61;60.24
77161;BME280;66135;0.000;0.000;2023-07-20T06:31:32;101427.34;;;22.61;60.13
77161;BME280;66135;0.000;0.000;2023-07-20T06:33:58;101417.66;;;22.59;60.48
77161;BME280;66135;0.000;0.000;2023-07-20T06:36:23;101413.84;;;22.60;60.19
77161;BME280;66135;0.000;0.000;2023-07-20T06:38:51;101411.31;;;22.58;60.48
77161;BME280;66135;0.000;0.000;2023-07-20T06:41:16;101417.66;;;22.59;60.46
77161;BME280;66135;0.000;0.000;2023-07-20T06:43:41;101413.03;;;22.59;60.50
77161;BME280;66135;0.000;0.000;2023-07-20T06:46:07;101417.06;;;22.63;60.38
77161;BME280;66135;0.000;0.000;2023-07-20T06:48:32;101416.91;;;22.65;60.01
77161;BME280;66135;0.000;0.000;2023-07-20T06:50:58;101413.50;;;22.63;60.40
77161;BME280;66135;0.000;0.000;2023-07-20T06:53:24;101420.66;;;22.64;60.48
77161;BME280;66135;0.000;0.000;2023-07-20T06:55:49;101416.03;;;22.64;60.47
77161;BME280;66135;0.000;0.000;2023-07-20T06:58:15;101416.91;;;22.65;60.19
77161;BME280;66135;0.000;0.000;2023-07-20T07:00:40;101422.34;;;22.65;60.43
77161;BME280;66135;0.000;0.000;2023-07-20T07:03:06;101426.09;;;22.64;60.55
77161;BME280;66135;0.000;0.000;2023-07-20T07:05:35;101426.97;;;22.64;60.30
77161;BME280;66135;0.000;0.000;2023-07-20T07:08:02;101435.34;;;22.63;60.60
77161;BME280;66135;0.000;0.000;2023-07-20T07:10:27;101437.03;;;22.64;60.58
77161;BME280;66135;0.000;0.000;2023-07-20T07:12:52;101439.75;;;22.64;60.66
77161;BME280;66135;0.000;0.000;2023-07-20T07:15:18;101442.50;;;22.64;60.38
77161;BME280;66135;0.000;0.000;2023-07-20T07:17:43;101436.00;;;22.65;60.44
77161;BME280;66135;0.000;0.000;2023-07-20T07:20:09;101435.16;;;22.64;60.75
77161;BME280;66135;0.000;0.000;2023-07-20T07:22:34;101437.22;;;22.62;60.69
77161;BME280;66135;0.000;0.000;2023-07-20T07:24:59;101437.03;;;22.64;60.63
77161;BME280;66135;0.000;0.000;2023-07-20T07:27:25;101444.22;;;22.65;60.40
77161;BME280;66135;0.000;0.000;2023-07-20T07:29:50;101432.44;;;22.64;60.83
77161;BME280;66135;0.000;0.000;2023-07-20T07:32:16;101434.97;;;22.66;60.36
77161;BME280;66135;0.000;0.000;2023-07-20T07:34:41;101436.84;;;22.65;60.84
77161;BME280;66135;0.000;0.000;2023-07-20T07:37:07;101435.81;;;22.66;60.89
77161;BME280;66135;0.000;0.000;2023-07-20T07:39:32;101429.50;;;22.66;60.92
77161;BME280;66135;0.000;0.000;2023-07-20T07:41:58;101433.91;;;22.67;60.76
77161;BME280;66135;0.000;0.000;2023-07-20T07:44:23;101442.09;;;22.67;60.54
77161;BME280;66135;0.000;0.000;2023-07-20T07:46:51;101436.66;;;22.67;60.68
77161;BME280;66135;0.000;0.000;2023-07-20T07:49:17;101447.56;;;22.67;60.54
77161;BME280;66135;0.000;0.000;2023-07-20T07:51:43;101448.44;;;22.67;60.58
77161;BME280;66135;0.000;0.000;2023-07-20T07:54:09;101447.56;;;22.67;60.76
77161;BME280;66135;0.000;0.000;2023-07-20T07:56:34;101453.03;;;22.67;61.08
77161;BME280;66135;0.000;0.000;2023-07-20T07:59:00;101451.34;;;22.66;61.20
77161;BME280;66135;0.000;0.000;2023-07-20T08:01:25;101455.97;;;22.65;61.06
77161;BME280;66135;0.000;0.000;2023-07-20T08:03:50;101455.13;;;22.65;60.94
77161;BME280;66135;0.000;0.000;2023-07-20T08:06:16;101454.28;;;22.64;60.94
77161;BME280;66135;0.000;0.000;2023-07-20T08:08:42;101458.03;;;22.63;61.23
77161;BME280;66135;0.000;0.000;2023-07-20T08:11:10;101464.34;;;22.64;61.60
77161;BME280;66135;0.000;0.000;2023-07-20T08:13:36;101461.63;;;22.64;61.14
77161;BME280;66135;0.000;0.000;2023-07-20T08:16:01;101463.31;;;22.65;61.34
77161;BME280;66135;0.000;0.000;2023-07-20T08:18:30;101462.28;;;22.66;61.09
77161;BME280;66135;0.000;0.000;2023-07-20T08:20:56;101460.41;;;22.66;61.28
77161;BME280;66135;0.000;0.000;2023-07-20T08:23:21;101455.97;;;22.65;61.50
77161;BME280;66135;0.000;0.000;2023-07-20T08:25:47;101464.81;;;22.67;61.48
77161;BME280;66135;0.000;0.000;2023-07-20T08:28:14;101453.88;;;22.67;61.10
77161;BME280;66135;0.000;0.000;2023-07-20T08:30:49;101457.47;;;22.68;61.37
77161;BME280;66135;0.000;0.000;2023-07-20T08:33:16;101460.00;;;22.69;61.32
77161;BME280;66135;0.000;0.000;2023-07-20T08:35:42;101457.28;;;22.69;61.49
77161;BME280;66135;0.000;0.000;2023-07-20T08:38:08;101462.56;;;22.71;61.44
77161;BME280;66135;0.000;0.000;2023-07-20T08:40:39;101453.31;;;22.72;61.38
77161;BME280;66135;0.000;0.000;2023-07-20T08:43:05;101450.56;;;22.72;61.13
77161;BME280;66135;0.000;0.000;2023-07-20T08:45:34;101456.03;;;22.72;61.10
77161;BME280;66135;0.000;0.000;2023-07-20T08:48:02;101455.88;;;22.73;61.37
77161;BME280;66135;0.000;0.000;2023-07-20T08:50:31;101448.50;;;22.74;61.36
77161;BME280;66135;0.000;0.000;2023-07-20T08:52:58;101455.88;;;22.73;61.26
77161;BME280;66135;0.000;0.000;2023-07-20T08:55:25;101453.16;;;22.73;61.37
77161;BME280;66135;0.000;0.000;2023-07-20T08:57:53;101446.81;;;22.73;61.50
77161;BME280;66135;0.000;0.000;2023-07-20T09:00:20;101453.31;;;22.72;61.54
77161;BME280;66135;0.000;0.000;2023-07-20T09:02:46;101457.09;;;22.71;61.94
77161;BME280;66135;0.000;0.000;2023-07-20T09:05:12;101453.31;;;22.72;62.02
77161;BME280;66135;0.000;0.000;2023-07-20T09:07:40;101455.22;;;22.71;61.83
77161;BME280;66135;0.000;0.000;2023-07-20T09:10:06;101450.56;;;22.72;61.78
77161;BME280;66135;0.000;0.000;2023-07-20T09:12:35;101452.28;;;22.73;61.72
77161;BME280;66135;0.000;0.000;2023-07-20T09:15:01;101444.94;;;22.73;61.71
77161;BME280;66135;0.000;0.000;2023-07-20T09:17:27;101437.56;;;22.74;61.87
77161;BME280;66135;0.000;0.000;2023-07-20T09:19:52;101441.16;;;22.74;61.82
77161;BME280;66135;0.000;0.000;2023-07-20T09:22:18;101443.69;;;22.76;61.48
77161;BME280;66135;0.000;0.000;2023-07-20T09:24:43;101440.97;;;22.76;62.04
77161;BME280;66135;0.000;0.000;2023-07-20T09:27:09;101448.16;;;22.77;61.42
77161;BME280;66135;0.000;0.000;2023-07-20T09:29:50;101441.63;;;22.78;61.67
77161;BME280;66135;0.000;0.000;2023-07-20T09:32:21;101439.75;;;22.78;61.72
77161;BME280;66135;0.000;0.000;2023-07-20T09:34:47;101434.09;;;22.80;61.88
77161;BME280;66135;0.000;0.000;2023-07-20T09:37:12;101435.78;;;22.81;61.70
77161;BME280;66135;0.000;0.000;2023-07-20T09:39:44;101436.81;;;22.80;61.61
77161;BME280;66135;0.000;0.000;2023-07-20T09:42:11;101435.78;;;22.81;61.98
77161;BME280;66135;0.000;0.000;2023-07-20T09:44:38;101445.88;;;22.80;61.89
77161;BME280;66135;0.000;0.000;2023-07-20T09:47:04;101434.09;;;22.80;61.61
77161;BME280;66135;0.000;0.000;2023-07-20T09:49:30;101428.44;;;22.81;61.97
77161;BME280;66135;0.000;0.000;2023-07-20T09:51:57;101416.66;;;22.81;62.13
77161;BME280;66135;0.000;0.000;2023-07-20T09:54:24;101420.91;;;22.83;61.64
77161;BME280;66135;0.000;0.000;2023-07-20T09:56:51;101423.44;;;22.85;61.65
77161;BME280;66135;0.000;0.000;2023-07-20T09:59:17;101424.28;;;22.85;61.89
77161;BME280;66135;0.000;0.000;2023-07-20T10:01:43;101421.38;;;22.87;62.51
77161;BME280;66135;0.000;0.000;2023-07-20T10:04:11;101421.16;;;22.88;62.04
77161;BME280;66135;0.000;0.000;2023-07-20T10:06:40;101430.03;;;22.90;62.53
77161;BME280;66135;0.000;0.000;2023-07-20T10:09:07;101422.50;;;22.92;62.19
77161;BME280;66135;0.000;0.000;2023-07-20T10:11:35;101421.44;;;22.93;62.64
77161;BME280;66135;0.000;0.000;2023-07-20T10:14:04;101417.69;;;22.94;62.76
77161;BME280;66135;0.000;0.000;2023-07-20T10:16:36;101410.13;;;22.96;62.21
77161;BME280;66135;0.000;0.000;2023-07-20T10:19:23;101413.91;;;22.95;62.11
77161;BME280;66135;0.000;0.000;2023-07-20T10:21:59;101417.28;;;22.97;63.07
77161;BME280;66135;0.000;0.000;2023-07-20T10:24:25;101407.22;;;22.98;62.97
77161;BME280;66135;0.000;0.000;2023-07-20T10:26:51;101414.56;;;22.97;63.15
77161;BME280;66135;0.000;0.000;2023-07-20T10:29:17;101406.34;;;22.97;62.89
77161;BME280;66135;0.000;0.000;2023-07-20T10:31:42;101409.75;;;22.99;63.22
77161;BME280;66135;0.000;0.000;2023-07-20T10:34:09;101408.69;;;23.00;62.99
77161;BME280;66135;0.000;0.000;2023-07-20T10:36:43;101396.72;;;23.01;63.50
77161;BME280;66135;0.000;0.000;2023-07-20T10:39:22;101403.03;;;23.02;63.25
77161;BME280;66135;0.000;0.000;2023-07-20T10:41:49;101396.34;;;23.04;63.29
77161;BME280;66135;0.000;0.000;2023-07-20T10:44:19;101399.91;;;23.05;63.12
77161;BME280;66135;0.000;0.000;2023-07-20T10:46:45;101392.34;;;23.07;63.30
77161;BME280;66135;0.000;0.000;2023-07-20T10:49:13;101389.63;;;23.07;63.26
77161;BME280;66135;0.000;0.000;2023-07-20T10:51:48;101392.56;;;23.05;63.33
77161;BME280;66135;0.000;0.000;2023-07-20T10:56:42;101391.91;;;23.03;63.59
77161;BME280;66135;0.000;0.000;2023-07-20T10:59:37;101388.34;;;23.03;63.53
77161;BME280;66135;0.000;0.000;2023-07-20T11:02:09;101384.75;;;23.02;63.31
77161;BME280;66135;0.000;0.000;2023-07-20T11:04:42;101385.78;;;23.01;62.59
77161;BME280;66135;0.000;0.000;2023-07-20T11:07:08;101390.22;;;23.02;63.20
77161;BME280;66135;0.000;0.000;2023-07-20T11:09:35;101394.84;;;23.02;62.43
77161;BME280;66135;0.000;0.000;2023-07-20T11:12:14;101394.84;;;23.02;62.63
77161;BME280;66135;0.000;0.000;2023-07-20T11:14:52;101392.09;;;23.02;62.81
77161;BME280;66135;0.000;0.000;2023-07-20T11:17:19;101393.81;;;23.03;62.52
77161;BME280;66135;0.000;0.000;2023-07-20T11:19:55;101380.16;;;23.03;62.58
77161;BME280;66135;0.000;0.000;2023-07-20T11:22:21;101376.56;;;23.02;62.34
77161;BME280;66135;0.000;0.000;2023-07-20T11:24:47;101381.63;;;23.05;62.49
77161;BME280;66135;0.000;0.000;2023-07-20T11:27:13;101379.75;;;23.06;62.95
77161;BME280;66135;0.000;0.000;2023-07-20T11:29:39;101373.22;;;23.07;62.64
77161;BME280;66135;0.000;0.000;2023-07-20T11:32:04;101367.97;;;23.05;62.28
77161;BME280;66135;0.000;0.000;2023-07-20T11:34:31;101370.69;;;23.05;62.75
77161;BME280;66135;0.000;0.000;2023-07-20T11:36:56;101363.56;;;23.04;62.55
77161;BME280;66135;0.000;0.000;2023-07-20T11:39:22;101373.44;;;23.05;62.17
77161;BME280;66135;0.000;0.000;2023-07-20T11:41:59;101372.56;;;23.05;62.94
77161;BME280;66135;0.000;0.000;2023-07-20T11:44:27;101367.97;;;23.05;62.93
77161;BME280;66135;0.000;0.000;2023-07-20T11:49:50;101370.69;;;23.05;63.22
77161;BME280;66135;0.000;0.000;2023-07-20T11:52:19;101368.63;;;23.07;63.19
77161;BME280;66135;0.000;0.000;2023-07-20T11:54:46;101364.66;;;23.10;62.96
77161;BME280;66135;0.000;0.000;2023-07-20T11:57:16;101366.16;;;23.12;62.33
77161;BME280;66135;0.000;0.000;2023-07-20T11:59:56;101356.94;;;23.13;62.92
77161;BME280;66135;0.000;0.000;2023-07-20T12:02:23;101360.69;;;23.12;63.16
77161;BME280;66135;0.000;0.000;2023-07-20T12:04:50;101352.47;;;23.12;62.81
77161;BME280;66135;0.000;0.000;2023-07-20T12:07:16;101355.22;;;23.12;63.08
77161;BME280;66135;0.000;0.000;2023-07-20T12:09:41;101354.34;;;23.12;63.09
77161;BME280;66135;0.000;0.000;2023-07-20T12:12:10;101345.13;;;23.13;62.55
77161;BME280;66135;0.000;0.000;2023-07-20T12:14:38;101350.41;;;23.14;63.12
77161;BME280;66135;0.000;0.000;2023-07-20T12:17:04;101348.53;;;23.15;62.77
77161;BME280;66135;0.000;0.000;2023-07-20T12:19:29;101349.34;;;23.15;63.00
77161;BME280;66135;0.000;0.000;2023-07-20T12:21:57;101351.25;;;23.15;62.84
77161;BME280;66135;0.000;0.000;2023-07-20T12:24:24;101347.66;;;23.14;63.06
77161;BME280;66135;0.000;0.000;2023-07-20T12:26:56;101349.53;;;23.14;62.50
77161;BME280;66135;0.000;0.000;2023-07-20T12:29:22;101354.00;;;23.15;62.86
77161;BME280;66135;0.000;0.000;2023-07-20T12:31:48;101348.53;;;23.15;62.88
77161;BME280;66135;0.000;0.000;2023-07-20T12:34:13;101358.59;;;23.14;62.58
77161;BME280;66135;0.000;0.000;2023-07-20T12:36:38;101353.13;;;23.14;62.36
77161;BME280;66135;0.000;0.000;2023-07-20T12:39:04;101355.88;;;23.14;62.81
77161;BME280;66135;0.000;0.000;2023-07-20T12:41:30;101355.88;;;23.14;62.48
77161;BME280;66135;0.000;0.000;2023-07-20T12:43:56;101353.13;;;23.14;62.47
77161;BME280;66135;0.000;0.000;2023-07-20T12:46:23;101352.28;;;23.14;62.85
77161;BME280;66135;0.000;0.000;2023-07-20T12:48:49;101355.88;;;23.14;62.58
77161;BME280;66135;0.000;0.000;2023-07-20T12:51:14;101339.47;;;23.14;62.52
77161;BME280;66135;0.000;0.000;2023-07-20T12:53:40;101344.94;;;23.14;62.89
77161;BME280;66135;0.000;0.000;2023-07-20T12:56:06;101344.09;;;23.14;62.62
77161;BME280;66135;0.000;0.000;2023-07-20T12:58:31;101349.53;;;23.14;62.94
77161;BME280;66135;0.000;0.000;2023-07-20T13:00:57;101337.59;;;23.15;62.53
77161;BME280;66135;0.000;0.000;2023-07-20T13:03:22;101340.31;;;23.15;62.61
77161;BME280;66135;0.000;0.000;2023-07-20T13:05:48;101331.28;;;23.14;62.94
77161;BME280;66135;0.000;0.000;2023-07-20T13:08:14;101334.66;;;23.16;62.84
77161;BME280;66135;0.000;0.000;2023-07-20T13:10:40;101337.38;;;23.16;62.75